Time;durP1;ratioP1;P1;durP2;ratioP2;P2;SDS_P1;SDS_P2;PMS_P1;PMS_P2;Temp;Humidity;BMP_temperature;BMP_pressure;BME280_temperature;BME280_humidity;BME280_pressure;Samples;Min_cycle;Max_cycle;Signal;HPM_P1;HPM_P2
2022/10/04 00:00:35;;;;;;;4.22;1.25;;;;;;;14.65;100.00;100125.28;5071260;28;20064;-73
2022/10/04 00:03:07;;;;;;;3.05;1.10;;;;;;;14.76;100.00;100128.22;5071131;28;20029;-70
2022/10/04 00:05:32;;;;;;;;;;;;;;;14.95;100.00;100125.69;5071418;28;20090;-72
2022/10/04 00:08:19;;;;;;;4.60;1.52;;;;;;;14.73;100.00;100115.56;5069260;28;19908;-70
2022/10/04 00:10:44;;;;;;;3.80;0.90;;;;;;;14.55;100.00;100090.75;5070759;28;20075;-70
2022/10/04 00:13:22;;;;;;;2.80;1.15;;;;;;;14.32;100.00;100072.16;5070948;28;20024;-72
2022/10/04 00:15:49;;;;;;;3.00;1.00;;;;;;;14.69;100.00;100120.84;5069500;28;20085;-71
2022/10/04 00:18:40;;;;;;;3.90;1.10;;;;;;;14.36;100.00;100054.03;5070884;28;20067;-73
2022/10/04 00:21:07;;;;;;;4.80;1.10;;;;;;;14.44;100.00;100077.56;5069796;28;20176;-72
2022/10/04 00:23:36;;;;;;;2.38;1.02;;;;;;;14.93;100.00;100116.41;5070124;28;20049;-72
2022/10/04 00:26:24;;;;;;;2.67;1.10;;;;;;;14.12;100.00;100060.16;5069852;28;20067;-75
2022/10/04 00:28:51;;;;;;;3.67;1.20;;;;;;;14.26;100.00;100034.00;5070930;28;20457;-72
2022/10/04 00:31:23;;;;;;;4.25;1.15;;;;;;;14.64;100.00;100117.66;5071082;28;20471;-73
2022/10/04 00:34:07;;;;;;;3.35;1.02;;;;;;;14.95;100.00;100128.25;5071200;28;20487;-73
2022/10/04 00:36:53;;;;;;;4.45;1.00;;;;;;;14.45;100.00;100065.59;5071290;28;20025;-72
2022/10/04 00:39:33;;;;;;;3.53;1.20;;;;;;;14.82;100.00;100118.59;5070990;28;20041;-72
2022/10/04 00:42:07;;;;;;;4.15;1.25;;;;;;;14.70;100.00;100105.44;5069458;28;20410;-75
2022/10/04 00:44:47;;;;;;;3.28;1.05;;;;;;;14.84;100.00;100117.63;5069406;28;20025;-73
2022/10/04 00:47:21;;;;;;;3.47;1.30;;;;;;;14.94;100.00;100113.78;5071152;28;20086;-72
2022/10/04 00:49:54;;;;;;;4.28;1.20;;;;;;;14.94;100.00;100124.03;5071008;28;20042;-72
2022/10/04 00:52:31;;;;;;;4.00;1.25;;;;;;;14.98;100.00;100125.56;5070223;28;20476;-72
2022/10/04 00:55:06;;;;;;;2.75;1.10;;;;;;;14.38;100.00;100082.13;5070661;28;20025;-73
2022/10/04 00:57:42;;;;;;;3.22;1.05;;;;;;;14.70;100.00;100130.19;5070637;28;20071;-72
2022/10/04 01:00:12;;;;;;;3.70;1.10;;;;;;;14.76;100.00;100083.84;5070638;28;20025;-73
2022/10/04 01:02:42;;;;;;;4.80;1.00;;;;;;;14.87;100.00;100138.00;5085946;28;20072;-79
2022/10/04 01:05:19;;;;;;;6.03;1.25;;;;;;;14.26;100.00;100044.22;5068938;28;20037;-74
2022/10/04 01:07:54;;;;;;;5.00;1.20;;;;;;;14.82;100.00;100111.75;5070650;28;20037;-73
2022/10/04 01:10:42;;;;;;;5.63;1.17;;;;;;;14.78;100.00;100117.91;5073313;28;20037;-73
2022/10/04 01:13:29;;;;;;;3.97;1.20;;;;;;;14.72;100.00;100118.16;5074536;28;20036;-73
2022/10/04 01:16:10;;;;;;;4.10;0.90;;;;;;;14.68;100.00;100125.13;5073098;28;20043;-72
2022/10/04 01:18:36;;;;;;;4.28;1.48;;;;;;;14.30;100.00;100073.94;5073224;28;20032;-72
2022/10/04 01:21:07;;;;;;;4.80;1.10;;;;;;;14.72;100.00;100120.72;5074412;28;20032;-73
2022/10/04 01:23:42;;;;;;;2.83;1.23;;;;;;;14.58;100.00;100117.91;5074072;28;20036;-73
2022/10/04 01:26:28;;;;;;;2.40;0.90;;;;;;;14.72;100.00;100116.44;5074304;28;20060;-72
2022/10/04 01:28:59;;;;;;;3.20;1.08;;;;;;;14.80;100.00;100115.28;5058985;28;20043;-73
2022/10/04 01:31:26;;;;;;;3.30;0.75;;;;;;;14.40;100.00;100064.97;5074092;28;20029;-73
2022/10/04 01:33:53;;;;;;;2.28;1.10;;;;;;;14.62;100.00;100101.53;5074345;28;20072;-73
2022/10/04 01:36:19;;;;;;;4.50;1.10;;;;;;;14.28;100.00;100057.81;5073803;28;20029;-74
2022/10/04 01:38:45;;;;;;;2.92;0.98;;;;;;;14.45;100.00;100093.75;5073807;28;20464;-72
2022/10/04 01:41:13;;;;;;;3.97;1.10;;;;;;;14.63;100.00;100123.69;5073317;28;20029;-73
2022/10/04 01:43:42;;;;;;;1.55;1.00;;;;;;;14.31;100.00;100060.22;5074603;28;20410;-72
2022/10/04 01:46:35;;;;;;;2.30;0.80;;;;;;;14.65;100.00;100127.00;5072602;28;20269;-71
2022/10/04 01:49:04;;;;;;;2.63;1.00;;;;;;;14.54;100.00;100144.50;5073404;28;20571;-69
2022/10/04 01:51:37;;;;;;;5.97;1.00;;;;;;;14.23;100.00;100085.25;5072402;28;20137;-71
2022/10/04 01:54:10;;;;;;;1.70;0.80;;;;;;;14.28;100.00;100106.41;5073499;28;20031;-71
2022/10/04 01:56:51;;;;;;;5.68;1.10;;;;;;;14.14;100.00;100073.69;5073740;28;20029;-72
2022/10/04 01:59:25;;;;;;;2.85;0.90;;;;;;;14.30;100.00;100084.16;5074191;28;20028;-72
2022/10/04 02:02:04;;;;;;;2.55;0.93;;;;;;;14.05;100.00;100073.22;5073690;28;20040;-72
2022/10/04 02:04:35;;;;;;;2.30;0.90;;;;;;;14.42;100.00;100119.47;5073880;28;20028;-73
2022/10/04 02:07:02;;;;;;;2.53;0.90;;;;;;;14.04;100.00;100071.56;5073663;28;20029;-71
2022/10/04 02:09:34;;;;;;;5.07;0.95;;;;;;;14.15;100.00;100088.13;5073084;28;20032;-73
2022/10/04 02:12:00;;;;;;;4.47;1.08;;;;;;;14.09;100.00;100105.44;5073029;28;20395;-72
2022/10/04 02:14:32;;;;;;;1.70;0.88;;;;;;;14.12;100.00;100103.63;5073060;28;20074;-72
2022/10/04 02:17:00;;;;;;;3.15;0.90;;;;;;;14.40;100.00;100131.50;5073056;28;20548;-71
2022/10/04 02:19:34;;;;;;;4.15;1.10;;;;;;;14.44;100.00;100158.59;5072045;28;20043;-74
2022/10/04 02:22:02;;;;;;;1.35;0.80;;;;;;;14.08;100.00;100114.03;5070723;28;20036;-73
2022/10/04 02:24:28;;;;;;;2.97;0.95;;;;;;;14.38;100.00;100148.63;5088738;28;20048;-71
2022/10/04 02:26:54;;;;;;;4.97;1.10;;;;;;;14.05;100.00;100088.56;5071755;28;20036;-71
2022/10/04 02:29:20;;;;;;;4.63;1.23;;;;;;;13.82;100.00;100061.38;5072736;28;20028;-72
2022/10/04 02:34:49;;;;;;;2.90;0.90;;;;;;;14.16;100.00;100109.44;5030819;28;20065;-71
2022/10/04 02:37:15;;;;;;;3.58;1.00;;;;;;;14.42;100.00;100160.41;5063728;28;20067;-71
2022/10/04 02:39:49;;;;;;;3.20;1.10;;;;;;;14.33;100.00;100160.75;5072476;28;20029;-70
2022/10/04 02:42:34;;;;;;;4.20;0.90;;;;;;;14.11;100.00;100129.22;5071149;28;20024;-71
2022/10/04 02:45:09;;;;;;;4.80;1.10;;;;;;;14.35;100.00;100162.34;5072425;28;20035;-73
2022/10/04 02:47:50;;;;;;;3.20;1.15;;;;;;;13.86;100.00;100086.72;5071192;28;20090;-72
2022/10/04 02:50:29;;;;;;;4.05;1.00;;;;;;;14.39;100.00;100189.47;5071528;28;20121;-72
2022/10/04 02:53:17;;;;;;;2.90;1.00;;;;;;;13.86;100.00;100125.06;5072485;28;20123;-71
2022/10/04 02:55:43;;;;;;;1.67;0.80;;;;;;;14.22;100.00;100178.22;5072266;28;20039;-71
2022/10/04 02:58:13;;;;;;;3.40;1.13;;;;;;;13.86;100.00;100121.72;5072299;28;20054;-72
2022/10/04 03:00:50;;;;;;;5.07;1.20;;;;;;;14.32;100.00;100169.34;5072260;28;20033;-71
2022/10/04 03:03:18;;;;;;;7.45;0.90;;;;;;;14.31;100.00;100185.56;5072324;28;20064;-70
2022/10/04 03:05:51;;;;;;;3.08;0.90;;;;;;;14.03;100.00;100138.91;5070586;28;20024;-71
2022/10/04 03:08:17;;;;;;;2.47;0.93;;;;;;;14.05;100.00;100148.19;5072179;28;20090;-71
2022/10/04 03:10:43;;;;;;;1.88;0.90;;;;;;;14.26;100.00;100167.00;5072233;28;20452;-72
2022/10/04 03:13:12;;;;;;;4.15;1.20;;;;;;;14.11;100.00;100190.59;5071425;28;20046;-70
2022/10/04 03:15:37;;;;;;;2.28;0.90;;;;;;;13.92;100.00;100141.91;5071177;28;20028;-71
2022/10/04 03:18:03;;;;;;;3.83;1.08;;;;;;;13.79;100.00;100118.53;5071737;28;20116;-70
2022/10/04 03:20:29;;;;;;;1.70;0.90;;;;;;;14.04;100.00;100168.72;5071950;28;20058;-74
2022/10/04 03:22:55;;;;;;;1.85;0.90;;;;;;;14.10;100.00;100183.81;5070531;28;20054;-71
2022/10/04 03:25:28;;;;;;;3.20;0.90;;;;;;;13.82;100.00;100138.06;5070249;28;20403;-72
2022/10/04 03:27:58;;;;;;;2.75;1.00;;;;;;;13.64;100.00;100120.88;5070718;28;20395;-72
2022/10/04 03:30:23;;;;;;;4.40;0.90;;;;;;;13.62;100.00;100127.75;5070431;28;20162;-72
2022/10/04 03:32:49;;;;;;;2.75;0.90;;;;;;;14.91;100.00;100128.44;5070737;28;20035;-70
2022/10/04 03:35:39;;;;;;;2.22;1.15;;;;;;;13.97;100.00;100162.16;5070735;28;20956;-72
2022/10/04 03:38:07;;;;;;;4.25;0.90;;;;;;;14.10;100.00;100194.88;5063893;28;20084;-73
2022/10/04 03:40:36;;;;;;;5.72;1.25;;;;;;;14.06;100.00;100198.47;5070711;28;20429;-72
2022/10/04 03:43:04;;;;;;;3.97;1.00;;;;;;;13.93;100.00;100184.47;5071614;28;20060;-74
2022/10/04 03:45:33;;;;;;;3.03;0.95;;;;;;;13.62;100.00;100159.25;5086955;28;20065;-74
2022/10/04 03:48:13;;;;;;;2.53;1.25;;;;;;;13.86;100.00;100209.41;5070634;28;20036;-72
2022/10/04 03:50:45;;;;;;;3.92;1.10;;;;;;;13.11;100.00;100092.22;5071561;28;20052;-73
2022/10/04 03:53:23;;;;;;;2.40;1.10;;;;;;;13.69;100.00;100191.34;5066478;28;20033;-73
2022/10/04 03:55:48;;;;;;;2.22;1.00;;;;;;;13.90;100.00;100198.19;5051047;28;20383;-71
2022/10/04 03:58:16;;;;;;;4.45;1.10;;;;;;;13.76;100.00;100215.78;5050937;28;20029;-72
2022/10/04 04:01:12;;;;;;;4.22;1.30;;;;;;;13.63;100.00;100175.38;5050895;28;20083;-71
2022/10/04 04:03:51;;;;;;;4.80;1.70;;;;;;;13.93;100.00;100215.13;5050912;28;20033;-69
2022/10/04 04:06:18;;;;;;;5.25;1.88;;;;;;;13.81;100.00;100202.81;5050852;28;20037;-70
2022/10/04 04:08:48;;;;;;;4.57;1.30;;;;;;;13.90;100.00;100213.53;5051185;28;20439;-72
2022/10/04 04:11:21;;;;;;;4.38;1.40;;;;;;;13.82;100.00;100214.72;5050781;28;20037;-69
2022/10/04 04:14:08;;;;;;;5.15;1.23;;;;;;;13.67;100.00;100228.03;5050918;28;20529;-72
2022/10/04 04:16:36;;;;;;;4.05;1.55;;;;;;;13.73;100.00;100226.09;5050426;28;20128;-72
2022/10/04 04:19:04;;;;;;;3.95;1.38;;;;;;;13.78;100.00;100226.78;5065687;28;20091;-71
2022/10/04 04:21:30;;;;;;;5.15;1.38;;;;;;;13.20;100.00;100167.63;5061787;28;20391;-69
2022/10/04 04:24:10;;;;;;;3.83;1.52;;;;;;;13.44;100.00;100199.94;5069745;28;20025;-72
2022/10/04 04:26:51;;;;;;;2.58;1.20;;;;;;;13.49;100.00;100231.28;5070597;28;20115;-71
2022/10/04 04:29:21;;;;;;;2.25;1.20;;;;;;;13.30;100.00;100189.41;5069475;28;20107;-72
2022/10/04 04:32:07;;;;;;;3.35;1.38;;;;;;;13.47;100.00;100231.31;5071139;28;20037;-72
2022/10/04 04:34:44;;;;;;;3.75;1.40;;;;;;;13.32;100.00;100183.34;5069947;28;20024;-70
2022/10/04 04:37:09;;;;;;;5.53;1.30;;;;;;;13.60;100.00;100255.56;5070685;28;20037;-72
2022/10/04 04:39:43;;;;;;;2.78;1.33;;;;;;;13.51;100.00;100243.09;5070438;28;20029;-73
2022/10/04 04:42:09;;;;;;;3.85;1.60;;;;;;;13.56;100.00;100271.88;5068979;28;20089;-71
2022/10/04 04:44:36;;;;;;;4.18;1.30;;;;;;;13.72;100.00;100274.72;5068925;28;20033;-70
2022/10/04 04:47:06;;;;;;;11.27;2.40;;;;;;;14.36;100.00;100273.19;5079442;28;20036;-74
2022/10/04 04:49:32;;;;;;;5.25;1.60;;;;;;;17.46;100.00;100217.03;5091319;28;20016;-72
2022/10/04 04:51:58;;;;;;;8.10;1.60;;;;;;;18.77;100.00;100287.06;5090813;28;20088;-73
2022/10/04 04:54:26;;;;;;;3.17;1.40;;;;;;;18.15;100.00;100284.50;5089959;28;20039;-72
2022/10/04 04:56:54;;;;;;;4.80;1.50;;;;;;;17.33;100.00;100190.34;5090026;28;20028;-72
2022/10/04 04:59:21;;;;;;;6.15;1.50;;;;;;;17.93;100.00;100284.84;5087083;28;20039;-71
2022/10/04 05:01:49;;;;;;;5.78;1.77;;;;;;;17.86;100.00;100252.66;5090041;28;20154;-71
2022/10/04 05:04:25;;;;;;;3.75;1.40;;;;;;;18.31;100.00;100300.78;5088890;28;20402;-71
2022/10/04 05:07:05;;;;;;;7.00;1.70;;;;;;;17.66;100.00;100283.72;5088506;28;20169;-71
2022/10/04 05:09:37;;;;;;;6.28;1.60;;;;;;;18.92;96.10;100255.25;5088654;28;20032;-71
2022/10/04 05:12:11;;;;;;;6.68;1.58;;;;;;;18.65;100.00;100305.78;5090433;28;20063;-74
2022/10/04 05:14:39;;;;;;;4.55;1.58;;;;;;;18.56;100.00;100326.06;5089012;28;20032;-73
2022/10/04 05:17:05;;;;;;;2.40;1.25;;;;;;;17.88;100.00;100293.72;5090088;28;20031;-73
2022/10/04 05:19:34;;;;;;;3.15;1.40;;;;;;;19.17;100.00;100336.34;5090001;28;20020;-73
2022/10/04 05:22:05;;;;;;;3.33;1.42;;;;;;;18.23;100.00;100338.97;5089555;28;20482;-72
2022/10/04 05:24:35;;;;;;;2.95;1.30;;;;;;;19.08;99.93;100344.56;5090299;28;20093;-72
2022/10/04 05:27:27;;;;;;;2.72;1.27;;;;;;;16.80;100.00;100336.84;5090340;28;20378;-73
2022/10/04 05:30:07;;;;;;;6.47;1.55;;;;;;;15.78;100.00;100321.91;5082129;28;20177;-71
2022/10/04 05:32:42;;;;;;;4.43;1.58;;;;;;;15.67;100.00;100326.66;5089798;28;20505;-72
2022/10/04 05:35:28;;;;;;;2.90;1.40;;;;;;;15.75;100.00;100269.94;5106027;28;20080;-74
2022/10/04 05:38:26;;;;;;;4.15;1.63;;;;;;;15.71;100.00;100320.47;5090101;28;20040;-72
2022/10/04 05:41:12;;;;;;;4.28;1.40;;;;;;;16.39;100.00;100319.97;5074547;28;20036;-72
2022/10/04 05:43:44;;;;;;;2.85;1.10;;;;;;;16.46;100.00;100324.75;5090833;28;20107;-72
2022/10/04 05:46:18;;;;;;;6.43;1.80;;;;;;;16.66;100.00;100317.91;5088776;28;20425;-73
2022/10/04 05:48:46;;;;;;;4.65;1.70;;;;;;;16.38;100.00;100305.50;5090226;28;20458;-72
2022/10/04 05:51:49;;;;;;;2.85;1.35;;;;;;;16.35;100.00;100326.16;5090069;28;20066;-72
2022/10/04 05:54:18;;;;;;;7.95;2.00;;;;;;;16.57;100.00;100313.19;5071031;28;20036;-72
2022/10/04 05:56:50;;;;;;;2.67;1.48;;;;;;;16.74;100.00;100324.31;5091203;28;20126;-72
2022/10/04 05:59:43;;;;;;;3.33;1.30;;;;;;;16.43;100.00;100319.78;5109514;28;20028;-72
2022/10/04 06:02:31;;;;;;;6.63;1.30;;;;;;;16.94;100.00;100339.59;5093803;28;20028;-72
2022/10/04 06:05:14;;;;;;;2.80;0.98;;;;;;;16.68;100.00;100329.72;5093872;28;20417;-73
2022/10/04 06:07:56;;;;;;;1.52;0.95;;;;;;;16.68;100.00;100329.72;5092467;28;20039;-71
2022/10/04 06:10:47;;;;;;;3.65;1.40;;;;;;;16.70;100.00;100330.50;5092104;28;20067;-72
2022/10/04 06:13:16;;;;;;;3.88;1.45;;;;;;;16.55;100.00;100294.44;5093478;28;20535;-73
2022/10/04 06:15:44;;;;;;;2.33;1.20;;;;;;;16.94;100.00;100339.59;5093627;28;20063;-73
2022/10/04 06:18:40;;;;;;;5.80;1.50;;;;;;;16.89;100.00;100336.44;5093259;28;20573;-72
2022/10/04 06:21:26;;;;;;;3.63;1.05;;;;;;;16.86;100.00;100336.56;5093804;28;20032;-72
2022/10/04 06:23:58;;;;;;;3.78;1.20;;;;;;;17.15;100.00;100330.03;5091904;28;20109;-72
2022/10/04 06:26:47;;;;;;;2.90;1.00;;;;;;;16.83;100.00;100259.69;5091934;28;20044;-72
2022/10/04 06:29:24;;;;;;;2.88;1.02;;;;;;;17.13;100.00;100332.66;5092774;28;20040;-72
2022/10/04 06:32:18;;;;;;;3.58;1.20;;;;;;;17.21;100.00;100340.81;5092840;28;20032;-74
2022/10/04 06:35:05;;;;;;;4.65;1.10;;;;;;;17.19;100.00;100336.69;5093211;28;20391;-73
2022/10/04 06:37:48;;;;;;;2.35;0.95;;;;;;;17.12;100.00;100336.16;5093126;28;20032;-74
2022/10/04 06:40:25;;;;;;;6.75;1.45;;;;;;;17.39;100.00;100346.78;5092880;28;20059;-71
2022/10/04 06:43:29;;;;;;;4.00;1.65;;;;;;;17.66;100.00;100352.31;5109004;28;20458;-73
2022/10/04 06:46:03;;;;;;;3.13;1.48;;;;;;;17.47;100.00;100349.81;5061081;28;20051;-72
2022/10/04 06:48:41;;;;;;;4.82;1.70;;;;;;;17.64;100.00;100347.25;5108841;28;20084;-72
2022/10/04 06:51:34;;;;;;;2.50;1.10;;;;;;;17.53;100.00;100351.28;5092708;28;20024;-71
2022/10/04 06:54:32;;;;;;;4.15;1.20;;;;;;;17.62;100.00;100350.81;5108295;28;20031;-72
2022/10/04 06:57:44;;;;;;;4.75;1.80;;;;;;;17.30;100.00;100355.81;5092702;28;20035;-72
2022/10/04 07:00:27;;;;;;;2.10;1.60;;;;;;;17.25;100.00;100303.78;5073117;28;20044;-74
2022/10/04 07:02:59;;;;;;;4.07;1.70;;;;;;;17.70;100.00;100370.09;5091670;28;20036;-73
2022/10/04 07:05:49;;;;;;;4.80;1.20;;;;;;;17.78;100.00;100367.97;5092700;28;20032;-74
2022/10/04 07:08:31;;;;;;;5.13;1.52;;;;;;;18.72;100.00;100362.94;5092695;28;20098;-74
2022/10/04 07:11:11;;;;;;;3.30;1.33;;;;;;;18.44;100.00;100304.38;5092663;28;20114;-71
2022/10/04 07:13:47;;;;;;;3.20;1.60;;;;;;;18.12;100.00;100364.47;5092959;28;20568;-72
2022/10/04 07:16:15;;;;;;;2.28;1.10;;;;;;;18.71;98.93;100367.28;5092306;28;20036;-72
2022/10/04 07:18:47;;;;;;;3.92;1.20;;;;;;;19.40;91.04;100382.28;5092110;28;20024;-76
2022/10/04 07:21:15;;;;;;;3.75;1.20;;;;;;;18.54;97.84;100317.59;5108264;28;20028;-73
2022/10/04 07:23:50;;;;;;;2.80;1.00;;;;;;;18.14;98.52;100321.47;5092523;28;20085;-72
2022/10/04 07:26:23;;;;;;;3.13;1.23;;;;;;;18.78;93.67;100324.78;5092364;28;20052;-72
2022/10/04 07:31:37;;;;;;;2.83;1.08;;;;;;;18.95;92.95;100396.84;5091546;28;20105;-72
2022/10/04 07:34:30;;;;;;;2.95;1.00;;;;;;;18.80;93.05;100379.63;5091977;28;20032;-72
2022/10/04 07:36:59;;;;;;;2.92;1.02;;;;;;;18.81;89.97;100332.34;5104334;28;20036;-70
2022/10/04 07:39:51;;;;;;;2.40;1.10;;;;;;;18.96;91.74;100383.03;5090649;28;20031;-71
2022/10/04 07:42:29;;;;;;;3.05;1.00;;;;;;;18.50;93.18;100383.88;5090743;28;20131;-71
2022/10/04 07:45:04;;;;;;;1.98;0.80;;;;;;;18.08;92.38;100324.38;5091667;28;20502;-71
2022/10/04 07:47:30;;;;;;;3.55;1.10;;;;;;;18.80;92.53;100383.94;5091696;28;20024;-72
2022/10/04 07:49:57;;;;;;;2.20;1.00;;;;;;;18.89;90.04;100383.47;5091984;28;20112;-71
2022/10/04 07:52:35;;;;;;;2.03;1.10;;;;;;;18.64;88.80;100399.41;5090336;28;20032;-71
2022/10/04 07:55:12;;;;;;;2.65;1.05;;;;;;;19.01;86.22;100387.94;5091374;28;20032;-71
2022/10/04 07:57:56;;;;;;;3.60;1.10;;;;;;;19.41;88.51;100399.44;5106945;28;20040;-72
2022/10/04 08:00:29;;;;;;;5.03;0.90;;;;;;;19.81;77.50;100372.94;5091363;28;20040;-73
2022/10/04 08:03:00;;;;;;;2.67;0.90;;;;;;;18.75;84.28;100406.56;5091306;28;20032;-72
2022/10/04 08:05:36;;;;;;;2.00;1.10;;;;;;;18.32;92.99;100382.28;5091515;28;20040;-73
2022/10/04 08:08:22;;;;;;;5.32;1.10;;;;;;;17.97;97.15;100419.28;5091186;28;20036;-72
2022/10/04 08:11:11;;;;;;;5.03;0.98;;;;;;;17.69;99.47;100353.00;5091199;28;20020;-72
2022/10/04 08:14:13;;;;;;;3.28;0.90;;;;;;;18.36;98.11;100406.91;5107309;28;20036;-72
2022/10/04 08:16:39;;;;;;;6.60;1.25;;;;;;;19.11;87.88;100406.28;5091311;28;20038;-72
2022/10/04 08:19:34;;;;;;;3.80;1.50;;;;;;;18.78;94.12;100401.22;5090535;28;20420;-71
2022/10/04 08:22:31;;;;;;;1.33;0.80;;;;;;;18.72;89.72;100404.16;5089957;28;20032;-71
2022/10/04 08:25:23;;;;;;;2.05;0.95;;;;;;;19.85;83.41;100400.22;5056290;28;20487;-72
2022/10/04 08:30:59;;;;;;;5.45;1.65;;;;;;;19.91;82.50;100402.44;5091034;28;20041;-72
2022/10/04 08:33:42;;;;;;;2.55;0.85;;;;;;;18.91;84.31;100402.25;5086934;28;20044;-72
2022/10/04 08:36:23;;;;;;;2.78;1.15;;;;;;;19.27;83.30;100400.19;5091101;28;20111;-72
2022/10/04 08:38:56;;;;;;;3.72;1.40;;;;;;;19.70;78.83;100367.59;5091315;28;20120;-71
2022/10/04 08:42:03;;;;;;;3.33;1.38;;;;;;;19.87;75.63;100404.38;5089610;28;20097;-71
2022/10/04 08:44:43;;;;;;;3.60;1.33;;;;;;;19.67;76.18;100406.47;5090944;28;20073;-71
2022/10/04 08:47:28;;;;;;;3.15;1.13;;;;;;;20.05;70.28;100349.97;5090740;28;20060;-71
2022/10/04 08:50:27;;;;;;;3.80;0.95;;;;;;;19.65;70.95;100405.72;5106430;28;20060;-71
2022/10/04 08:53:19;;;;;;;3.00;1.50;;;;;;;20.09;69.54;100414.25;5091212;28;20030;-72
2022/10/04 08:56:10;;;;;;;;;;;;;;;20.48;66.21;100413.63;5091688;28;20524;-71
2022/10/04 08:59:05;;;;;;;5.75;1.23;;;;;;;19.38;69.74;100322.22;5106166;28;19966;-71
2022/10/04 09:01:49;;;;;;;2.45;1.08;;;;;;;20.72;69.27;100418.09;5089299;28;20097;-72
2022/10/04 09:04:58;;;;;;;3.60;1.23;;;;;;;20.31;68.88;100424.16;5082674;28;20131;-73
2022/10/04 09:07:48;;;;;;;3.33;1.50;;;;;;;21.07;63.94;100422.81;5008389;28;20034;-70
2022/10/04 09:10:59;;;;;;;3.35;1.50;;;;;;;21.23;63.29;100420.91;5008808;28;20527;-70
2022/10/04 09:13:45;;;;;;;3.28;1.20;;;;;;;21.03;63.03;100418.78;5031430;28;20049;-71
2022/10/04 09:16:23;;;;;;;7.25;1.20;;;;;;;20.40;61.98;100421.03;4364859;28;10000858;-70
2022/10/04 09:18:52;;;;;;;5.28;2.10;;;;;;;19.83;61.88;100377.09;5049309;28;20044;-70
2022/10/04 09:21:18;;;;;;;5.93;1.90;;;;;;;20.63;60.81;100420.44;5066616;28;20122;-70
2022/10/04 09:24:09;;;;;;;2.25;1.23;;;;;;;20.65;58.48;100409.06;5067270;28;20037;-70
2022/10/04 09:26:50;;;;;;;2.53;1.00;;;;;;;21.40;55.87;100413.72;5064244;28;20060;-70
2022/10/04 09:29:34;;;;;;;1.80;0.80;;;;;;;21.48;56.95;100436.50;5088222;28;20079;-73
2022/10/04 09:32:02;;;;;;;2.10;0.77;;;;;;;20.95;60.77;100427.00;5073062;28;20396;-70
2022/10/04 09:34:32;;;;;;;3.47;0.88;;;;;;;21.26;56.44;100424.13;5091122;28;20032;-70
2022/10/04 09:37:25;;;;;;;3.10;1.20;;;;;;;21.64;54.49;100431.13;5073854;28;20143;-69
2022/10/04 09:39:51;;;;;;;2.92;1.20;;;;;;;21.77;55.94;100425.03;5071129;28;20040;-71
2022/10/04 09:42:27;;;;;;;1.88;0.85;;;;;;;20.59;57.87;100434.47;5071341;28;20051;-73
2022/10/04 09:45:05;;;;;;;2.80;0.75;;;;;;;21.39;57.39;100421.59;5070584;28;20078;-72
2022/10/04 09:47:37;;;;;;;3.33;0.70;;;;;;;20.32;60.11;100421.47;5050310;28;20041;-71
2022/10/04 09:50:50;;;;;;;3.13;0.77;;;;;;;21.38;58.68;100405.22;5069663;28;20032;-72
2022/10/04 09:53:19;;;;;;;2.70;0.75;;;;;;;20.99;56.73;100433.63;5002494;28;20050;-73
2022/10/04 09:56:03;;;;;;;1.50;0.80;;;;;;;20.46;58.28;100434.38;5094070;28;20089;-71
2022/10/04 10:02:27;;;;;;;3.13;0.85;;;;;;;21.66;53.13;100422.34;5094686;28;20055;-72
2022/10/04 10:05:11;;;;;;;3.22;0.70;;;;;;;22.86;50.42;100420.03;5092457;28;20020;-72
2022/10/04 10:08:04;;;;;;;2.40;0.60;;;;;;;21.59;50.70;100421.91;5093962;28;20130;-71
2022/10/04 10:14:10;;;;;;;2.47;1.00;;;;;;;22.37;50.24;100431.25;5093895;28;20193;-70
2022/10/04 10:16:52;;;;;;;2.13;0.90;;;;;;;21.71;51.15;100438.38;5093912;28;20055;-70
2022/10/04 10:19:32;;;;;;;2.08;0.90;;;;;;;21.90;50.85;100419.91;5093707;28;20030;-70
2022/10/04 10:22:30;;;;;;;2.83;1.33;;;;;;;21.73;50.33;100418.41;5109442;28;20145;-71
2022/10/04 10:25:33;;;;;;;1.73;0.70;;;;;;;22.21;49.13;100422.06;5093559;28;20043;-72
2022/10/04 10:28:17;;;;;;;2.08;0.80;;;;;;;21.96;50.31;100425.50;5093675;28;20114;-72
2022/10/04 10:31:28;;;;;;;2.05;1.20;;;;;;;22.68;49.06;100411.00;5109375;28;20336;-71
2022/10/04 10:34:14;;;;;;;1.25;0.80;;;;;;;22.26;48.15;100420.00;5072799;28;20051;-71
2022/10/04 10:37:01;;;;;;;1.90;0.68;;;;;;;21.68;49.74;100427.41;5093918;28;20032;-72
2022/10/04 10:39:49;;;;;;;1.88;0.70;;;;;;;22.48;47.94;100424.50;5093892;28;20059;-72
2022/10/04 10:43:22;;;;;;;1.90;0.80;;;;;;;23.23;46.69;100425.06;5092535;28;20501;-71
2022/10/04 10:46:14;;;;;;;2.03;0.50;;;;;;;22.08;46.58;100418.66;4991341;28;20575;-70
2022/10/04 10:48:51;;;;;;;1.13;0.50;;;;;;;22.54;45.11;100430.06;5002759;28;20040;-71
2022/10/04 10:51:44;;;;;;;2.33;0.60;;;;;;;22.32;46.93;100428.16;5030664;28;20072;-72
2022/10/04 10:54:29;;;;;;;1.38;0.75;;;;;;;21.39;49.15;100419.81;5080183;28;20082;-71
2022/10/04 10:57:42;;;;;;;2.40;0.70;;;;;;;22.42;48.26;100425.78;5092971;28;20039;-71
2022/10/04 11:00:38;;;;;;;2.00;0.73;;;;;;;21.87;48.34;100379.50;5091676;28;20059;-71
2022/10/04 11:03:16;;;;;;;1.73;0.82;;;;;;;22.20;49.66;100425.59;5093330;28;20042;-73
2022/10/04 11:06:12;;;;;;;1.90;0.77;;;;;;;22.57;49.47;100431.63;5108246;28;20032;-70
2022/10/04 11:08:54;;;;;;;0.80;0.50;;;;;;;23.01;48.52;100427.59;5108469;28;20077;-70
2022/10/04 11:11:57;;;;;;;2.38;0.77;;;;;;;22.54;48.18;100424.88;5108535;28;20024;-71
2022/10/04 11:14:42;;;;;;;2.90;0.70;;;;;;;22.00;51.04;100397.63;5108693;28;20530;-70
2022/10/04 11:17:40;;;;;;;1.65;0.68;;;;;;;22.16;48.78;100334.31;5092707;28;20036;-73
2022/10/04 11:20:38;;;;;;;3.17;0.88;;;;;;;22.01;50.33;100441.53;5093030;28;20028;-73
2022/10/04 11:23:27;;;;;;;1.88;0.60;;;;;;;22.92;48.79;100441.19;5092363;28;20024;-71
2022/10/04 11:26:45;;;;;;;2.58;0.60;;;;;;;22.38;48.01;100440.69;5092485;28;20040;-71
2022/10/04 11:29:28;;;;;;;2.17;0.75;;;;;;;23.44;47.75;100440.88;5091151;28;20043;-71
2022/10/04 11:31:56;;;;;;;3.85;0.98;;;;;;;22.00;48.20;100447.66;5092554;28;20162;-71
2022/10/04 11:34:43;;;;;;;0.75;0.60;;;;;;;22.50;47.43;100449.41;5092315;28;20028;-71
2022/10/04 11:37:20;;;;;;;2.33;0.80;;;;;;;22.21;48.39;100445.38;5092483;28;20039;-71
2022/10/04 11:40:21;;;;;;;5.70;0.90;;;;;;;22.98;47.47;100432.13;5092300;28;20059;-72
2022/10/04 11:43:01;;;;;;;1.48;0.63;;;;;;;21.85;48.18;100443.50;5091830;28;20103;-73
2022/10/04 11:45:35;;;;;;;0.95;0.75;;;;;;;21.39;47.97;100416.41;5092367;28;20028;-72
2022/10/04 11:48:31;;;;;;;0.50;0.50;;;;;;;22.31;47.69;100439.47;5091618;28;20103;-72
2022/10/04 11:51:19;;;;;;;3.08;0.85;;;;;;;23.02;46.43;100438.75;5107309;28;20024;-71
2022/10/04 11:54:03;;;;;;;2.92;0.70;;;;;;;22.64;47.91;100446.66;5090437;28;20032;-71
2022/10/04 11:56:54;;;;;;;1.58;0.68;;;;;;;22.30;47.00;100379.97;5107052;28;20032;-72
2022/10/04 11:59:31;;;;;;;1.95;0.70;;;;;;;22.07;49.37;100446.31;5091806;28;20035;-73
2022/10/04 12:02:09;;;;;;;2.15;1.20;;;;;;;21.72;48.34;100445.22;5091962;28;20115;-71
2022/10/04 12:05:02;;;;;;;1.42;0.80;;;;;;;22.55;47.36;100452.47;5091709;28;20031;-70
2022/10/04 12:07:49;;;;;;;1.25;0.82;;;;;;;22.84;47.47;100442.69;5091392;28;20032;-72
2022/10/04 12:10:35;;;;;;;2.17;0.90;;;;;;;22.59;47.09;100447.94;5106763;28;20028;-71
2022/10/04 12:13:31;;;;;;;0.77;0.63;;;;;;;22.85;46.63;100446.94;5091516;28;20036;-71
2022/10/04 12:16:28;;;;;;;1.50;0.80;;;;;;;22.79;45.96;100455.16;5084072;28;20036;-71
2022/10/04 12:19:15;;;;;;;2.63;0.82;;;;;;;23.01;45.48;100445.75;5091044;28;20035;-71
2022/10/04 12:21:53;;;;;;;0.90;0.65;;;;;;;23.06;46.61;100440.19;5091734;28;20056;-71
2022/10/04 12:24:25;;;;;;;1.65;0.80;;;;;;;23.32;44.40;100453.91;5090641;28;20036;-70
2022/10/04 12:27:31;;;;;;;4.25;0.70;;;;;;;23.22;45.12;100445.94;5106620;28;20070;-70
2022/10/04 12:30:20;;;;;;;2.28;0.57;;;;;;;22.91;45.94;100454.28;5106361;28;20031;-71
2022/10/04 12:32:49;;;;;;;1.00;0.80;;;;;;;22.74;45.63;100406.19;5089096;28;20032;-70